sensor_id;sensor_type;location;lat;lon;timestamp;pressure;altitude;pressure_sealevel;temperature;humidity
73267;BME280;61495;53.400;7.608;2023-04-06T00:01:20;101942.53;;;3.29;74.03
73267;BME280;61495;53.400;7.608;2023-04-06T00:03:45;101944.63;;;3.25;74.10
73267;BME280;61495;53.400;7.608;2023-04-06T00:06:11;101945.72;;;3.23;73.95
73267;BME280;61495;53.400;7.608;2023-04-06T00:08:36;101940.69;;;3.20;74.22
73267;BME280;61495;53.400;7.608;2023-04-06T00:11:01;101937.47;;;3.16;73.81
73267;BME280;61495;53.400;7.608;2023-04-06T00:13:27;101941.22;;;3.14;74.46
73267;BME280;61495;53.400;7.608;2023-04-06T00:15:52;101944.81;;;3.13;74.39
73267;BME280;61495;53.400;7.608;2023-04-06T00:18:17;101936.56;;;3.06;72.94
73267;BME280;61495;53.400;7.608;2023-04-06T00:20:43;101926.13;;;3.05;74.42
73267;BME280;61495;53.400;7.608;2023-04-06T00:23:08;101914.09;;;3.01;75.56
73267;BME280;61495;53.400;7.608;2023-04-06T00:25:33;101919.66;;;2.98;72.79
73267;BME280;61495;53.400;7.608;2023-04-06T00:27:59;101911.03;;;2.96;75.17
73267;BME280;61495;53.400;7.608;2023-04-06T00:30:24;101915.63;;;2.94;75.65
73267;BME280;61495;53.400;7.608;2023-04-06T00:32:50;101909.84;;;2.89;72.94
73267;BME280;61495;53.400;7.608;2023-04-06T00:35:15;101901.47;;;2.84;74.73
73267;BME280;61495;53.400;7.608;2023-04-06T00:37:40;101910.13;;;2.86;76.04
73267;BME280;61495;53.400;7.608;2023-04-06T00:40:06;101898.97;;;2.82;76.19
73267;BME280;61495;53.400;7.608;2023-04-06T00:42:32;101901.03;;;2.78;74.96
73267;BME280;61495;53.400;7.608;2023-04-06T00:44:59;101896.13;;;2.74;73.67
73267;BME280;61495;53.400;7.608;2023-04-06T00:47:25;101894.84;;;2.68;74.07
73267;BME280;61495;53.400;7.608;2023-04-06T00:49:52;101885.47;;;2.64;74.45
73267;BME280;61495;53.400;7.608;2023-04-06T00:52:18;101884.91;;;2.61;76.04
73267;BME280;61495;53.400;7.608;2023-04-06T00:54:43;101884.06;;;2.60;75.52
73267;BME280;61495;53.400;7.608;2023-04-06T00:57:09;101884.34;;;2.57;75.60
73267;BME280;61495;53.400;7.608;2023-04-06T00:59:34;101877.19;;;2.48;75.97
73267;BME280;61495;53.400;7.608;2023-04-06T01:02:00;101884.84;;;2.51;74.41
73267;BME280;61495;53.400;7.608;2023-04-06T01:04:26;101887.75;;;2.48;74.72
73267;BME280;61495;53.400;7.608;2023-04-06T01:06:52;101876.72;;;2.43;74.40
73267;BME280;61495;53.400;7.608;2023-04-06T01:09:18;101872.66;;;2.39;75.19
73267;BME280;61495;53.400;7.608;2023-04-06T01:11:43;101874.84;;;2.34;74.14
73267;BME280;61495;53.400;7.608;2023-04-06T01:14:08;101874.13;;;2.32;75.05
73267;BME280;61495;53.400;7.608;2023-04-06T01:16:34;101863.25;;;2.26;75.67
73267;BME280;61495;53.400;7.608;2023-04-06T01:19:01;101861.66;;;2.23;76.51
73267;BME280;61495;53.400;7.608;2023-04-06T01:21:26;101857.38;;;2.22;76.28
73267;BME280;61495;53.400;7.608;2023-04-06T01:23:52;101868.19;;;2.19;76.32
73267;BME280;61495;53.400;7.608;2023-04-06T01:26:17;101852.84;;;2.13;76.71
73267;BME280;61495;53.400;7.608;2023-04-06T01:28:43;101851.16;;;2.12;74.61
73267;BME280;61495;53.400;7.608;2023-04-06T01:31:09;101856.44;;;2.12;76.93
73267;BME280;61495;53.400;7.608;2023-04-06T01:33:34;101848.06;;;2.07;75.67
73267;BME280;61495;53.400;7.608;2023-04-06T01:36:08;101842.44;;;2.00;76.17
73267;BME280;61495;53.400;7.608;2023-04-06T01:38:41;101851.22;;;2.01;77.17
73267;BME280;61495;53.400;7.608;2023-04-06T01:41:23;101851.34;;;1.99;77.20
73267;BME280;61495;53.400;7.608;2023-04-06T01:43:56;101846.19;;;1.98;75.78
73267;BME280;61495;53.400;7.608;2023-04-06T01:46:37;101841.41;;;1.92;77.09
73267;BME280;61495;53.400;7.608;2023-04-06T01:49:19;101849.59;;;1.89;78.17
73267;BME280;61495;53.400;7.608;2023-04-06T01:51:52;101846.25;;;1.87;78.07
73267;BME280;61495;53.400;7.608;2023-04-06T01:54:26;101835.94;;;1.84;77.33
73267;BME280;61495;53.400;7.608;2023-04-06T01:56:51;101838.09;;;1.79;78.20
73267;BME280;61495;53.400;7.608;2023-04-06T01:59:17;101839.06;;;1.78;78.11
73267;BME280;61495;53.400;7.608;2023-04-06T02:01:42;101834.75;;;1.77;79.16
73267;BME280;61495;53.400;7.608;2023-04-06T02:04:08;101834.63;;;1.78;79.58
73267;BME280;61495;53.400;7.608;2023-04-06T02:06:33;101836.69;;;1.75;78.40
73267;BME280;61495;53.400;7.608;2023-04-06T02:08:58;101822.88;;;1.71;78.13
73267;BME280;61495;53.400;7.608;2023-04-06T02:11:24;101832.75;;;1.69;79.10
73267;BME280;61495;53.400;7.608;2023-04-06T02:13:49;101830.22;;;1.67;79.41
73267;BME280;61495;53.400;7.608;2023-04-06T02:16:15;101826.84;;;1.65;79.41
73267;BME280;61495;53.400;7.608;2023-04-06T02:18:40;101821.81;;;1.62;78.41
73267;BME280;61495;53.400;7.608;2023-04-06T02:21:06;101814.84;;;1.61;77.89
73267;BME280;61495;53.400;7.608;2023-04-06T02:23:31;101821.81;;;1.62;79.19
73267;BME280;61495;53.400;7.608;2023-04-06T02:25:56;101811.25;;;1.62;79.22
73267;BME280;61495;53.400;7.608;2023-04-06T02:28:22;101806.22;;;1.59;80.10
73267;BME280;61495;53.400;7.608;2023-04-06T02:30:47;101813.31;;;1.59;79.65
73267;BME280;61495;53.400;7.608;2023-04-06T02:33:12;101808.41;;;1.54;78.56
73267;BME280;61495;53.400;7.608;2023-04-06T02:35:38;101811.75;;;1.56;78.52
73267;BME280;61495;53.400;7.608;2023-04-06T02:38:03;101805.78;;;1.54;80.08
73267;BME280;61495;53.400;7.608;2023-04-06T02:40:28;101811.06;;;1.54;80.31
73267;BME280;61495;53.400;7.608;2023-04-06T02:42:53;101809.47;;;1.52;79.26
73267;BME280;61495;53.400;7.608;2023-04-06T02:45:19;101811.31;;;1.51;79.77
73267;BME280;61495;53.400;7.608;2023-04-06T02:47:44;101805.03;;;1.52;80.22
73267;BME280;61495;53.400;7.608;2023-04-06T02:50:10;101804.19;;;1.52;79.92
73267;BME280;61495;53.400;7.608;2023-04-06T02:52:35;101802.41;;;1.52;79.49
73267;BME280;61495;53.400;7.608;2023-04-06T02:55:00;101804.19;;;1.52;79.36
73267;BME280;61495;53.400;7.608;2023-04-06T02:57:26;101795.72;;;1.48;78.13
73267;BME280;61495;53.400;7.608;2023-04-06T02:59:51;101798.34;;;1.48;81.20
73267;BME280;61495;53.400;7.608;2023-04-06T03:02:16;101793.44;;;1.44;80.45
73267;BME280;61495;53.400;7.608;2023-04-06T03:04:42;101794.53;;;1.41;79.85
73267;BME280;61495;53.400;7.608;2023-04-06T03:07:08;101786.00;;;1.38;79.98
73267;BME280;61495;53.400;7.608;2023-04-06T03:09:33;101791.28;;;1.38;79.83
73267;BME280;61495;53.400;7.608;2023-04-06T03:11:58;101790.78;;;1.44;80.99
73267;BME280;61495;53.400;7.608;2023-04-06T03:14:24;101792.13;;;1.38;79.91
73267;BME280;61495;53.400;7.608;2023-04-06T03:16:49;101790.69;;;1.34;79.29
73267;BME280;61495;53.400;7.608;2023-04-06T03:19:15;101784.91;;;1.40;81.08
73267;BME280;61495;53.400;7.608;2023-04-06T03:21:41;101788.53;;;1.39;80.89
73267;BME280;61495;53.400;7.608;2023-04-06T03:24:07;101777.38;;;1.36;81.59
73267;BME280;61495;53.400;7.608;2023-04-06T03:26:32;101782.28;;;1.40;81.67
73267;BME280;61495;53.400;7.608;2023-04-06T03:28:58;101780.63;;;1.39;81.21
73267;BME280;61495;53.400;7.608;2023-04-06T03:31:23;101774.00;;;1.34;79.96
73267;BME280;61495;53.400;7.608;2023-04-06T03:33:49;101782.06;;;1.32;80.38
73267;BME280;61495;53.400;7.608;2023-04-06T03:36:14;101781.13;;;1.33;81.23
73267;BME280;61495;53.400;7.608;2023-04-06T03:38:39;101775.69;;;1.35;81.24
73267;BME280;61495;53.400;7.608;2023-04-06T03:41:05;101778.47;;;1.33;80.73
73267;BME280;61495;53.400;7.608;2023-04-06T03:43:30;101785.16;;;1.37;82.15
73267;BME280;61495;53.400;7.608;2023-04-06T03:45:55;101770.66;;;1.32;80.93
73267;BME280;61495;53.400;7.608;2023-04-06T03:48:21;101776.66;;;1.34;81.70
73267;BME280;61495;53.400;7.608;2023-04-06T03:50:46;101778.72;;;1.30;80.01
73267;BME280;61495;53.400;7.608;2023-04-06T03:53:11;101771.75;;;1.29;80.29
73267;BME280;61495;53.400;7.608;2023-04-06T03:55:36;101778.97;;;1.27;80.76
73267;BME280;61495;53.400;7.608;2023-04-06T03:58:02;101770.31;;;1.25;80.05
73267;BME280;61495;53.400;7.608;2023-04-06T04:00:27;101779.91;;;1.26;79.26
73267;BME280;61495;53.400;7.608;2023-04-06T04:02:53;101775.84;;;1.22;80.86
73267;BME280;61495;53.400;7.608;2023-04-06T04:05:18;101774.44;;;1.18;81.64
73267;BME280;61495;53.400;7.608;2023-04-06T04:07:43;101771.91;;;1.17;80.79
73267;BME280;61495;53.400;7.608;2023-04-06T04:10:09;101775.78;;;1.13;80.97
73267;BME280;61495;53.400;7.608;2023-04-06T04:12:34;101775.16;;;1.09;81.11
73267;BME280;61495;53.400;7.608;2023-04-06T04:15:00;101776.38;;;1.05;80.04
73267;BME280;61495;53.400;7.608;2023-04-06T04:17:25;101772.88;;;1.04;80.36
73267;BME280;61495;53.400;7.608;2023-04-06T04:19:50;101770.38;;;1.03;80.83
73267;BME280;61495;53.400;7.608;2023-04-06T04:22:16;101770.63;;;1.00;80.84
73267;BME280;61495;53.400;7.608;2023-04-06T04:24:41;101773.25;;;1.00;80.87
73267;BME280;61495;53.400;7.608;2023-04-06T04:27:06;101770.88;;;0.97;81.04
73267;BME280;61495;53.400;7.608;2023-04-06T04:29:31;101770.16;;;0.95;80.06
73267;BME280;61495;53.400;7.608;2023-04-06T04:31:57;101771.97;;;0.94;80.52
73267;BME280;61495;53.400;7.608;2023-04-06T04:34:22;101767.03;;;0.90;80.68
73267;BME280;61495;53.400;7.608;2023-04-06T04:36:52;101775.91;;;0.89;80.52
73267;BME280;61495;53.400;7.608;2023-04-06T04:39:17;101770.75;;;0.87;80.29
73267;BME280;61495;53.400;7.608;2023-04-06T04:41:42;101771.84;;;0.85;80.38
73267;BME280;61495;53.400;7.608;2023-04-06T04:44:08;101772.69;;;0.85;80.92
73267;BME280;61495;53.400;7.608;2023-04-06T04:46:33;101766.56;;;0.85;81.31
73267;BME280;61495;53.400;7.608;2023-04-06T04:48:58;101767.50;;;0.84;80.65
73267;BME280;61495;53.400;7.608;2023-04-06T04:51:23;101764.03;;;0.83;80.16
73267;BME280;61495;53.400;7.608;2023-04-06T04:53:50;101764.41;;;0.79;80.67
73267;BME280;61495;53.400;7.608;2023-04-06T04:56:15;101763.47;;;0.80;80.87
73267;BME280;61495;53.400;7.608;2023-04-06T04:58:40;101758.19;;;0.80;80.68
73267;BME280;61495;53.400;7.608;2023-04-06T05:01:05;101766.81;;;0.82;81.25
73267;BME280;61495;53.400;7.608;2023-04-06T05:03:32;101770.38;;;0.81;80.27
73267;BME280;61495;53.400;7.608;2023-04-06T05:05:57;101775.66;;;0.81;79.94
73267;BME280;61495;53.400;7.608;2023-04-06T05:08:23;101774.97;;;0.79;80.16
73267;BME280;61495;53.400;7.608;2023-04-06T05:10:48;101770.63;;;0.78;79.71
73267;BME280;61495;53.400;7.608;2023-04-06T05:13:14;101768.13;;;0.76;79.66
73267;BME280;61495;53.400;7.608;2023-04-06T05:15:39;101769.91;;;0.76;79.11
73267;BME280;61495;53.400;7.608;2023-04-06T05:18:06;101765.25;;;0.79;79.75
73267;BME280;61495;53.400;7.608;2023-04-06T05:20:31;101761.06;;;0.77;79.77
73267;BME280;61495;53.400;7.608;2023-04-06T05:22:57;101771.00;;;0.84;80.14
73267;BME280;61495;53.400;7.608;2023-04-06T05:25:22;101768.50;;;0.83;78.94
73267;BME280;61495;53.400;7.608;2023-04-06T05:27:47;101760.34;;;0.86;79.31
73267;BME280;61495;53.400;7.608;2023-04-06T05:30:13;101759.72;;;0.93;79.37
73267;BME280;61495;53.400;7.608;2023-04-06T05:32:39;101762.72;;;1.00;79.33
73267;BME280;61495;53.400;7.608;2023-04-06T05:35:04;101766.28;;;1.10;79.69
73267;BME280;61495;53.400;7.608;2023-04-06T05:37:30;101764.47;;;1.22;79.77
73267;BME280;61495;53.400;7.608;2023-04-06T05:39:55;101764.78;;;1.28;79.26
73267;BME280;61495;53.400;7.608;2023-04-06T05:42:22;101760.72;;;1.35;78.62
73267;BME280;61495;53.400;7.608;2023-04-06T05:44:47;101761.06;;;1.42;78.84
73267;BME280;61495;53.400;7.608;2023-04-06T05:47:12;101760.91;;;1.54;78.15
73267;BME280;61495;53.400;7.608;2023-04-06T05:49:38;101766.81;;;1.67;78.69
73267;BME280;61495;53.400;7.608;2023-04-06T05:52:03;101763.31;;;1.78;77.56
73267;BME280;61495;53.400;7.608;2023-04-06T05:54:29;101763.84;;;1.93;77.61
73267;BME280;61495;53.400;7.608;2023-04-06T05:56:54;101765.31;;;2.06;77.56
73267;BME280;61495;53.400;7.608;2023-04-06T05:59:20;101758.41;;;2.15;76.71
73267;BME280;61495;53.400;7.608;2023-04-06T06:01:45;101756.53;;;2.27;76.47
73267;BME280;61495;53.400;7.608;2023-04-06T06:04:11;101747.97;;;2.34;76.04
73267;BME280;61495;53.400;7.608;2023-04-06T06:06:36;101749.97;;;2.51;75.82
73267;BME280;61495;53.400;7.608;2023-04-06T06:09:02;101752.94;;;2.58;75.54
73267;BME280;61495;53.400;7.608;2023-04-06T06:11:29;101754.09;;;2.74;75.11
73267;BME280;61495;53.400;7.608;2023-04-06T06:13:54;101747.22;;;2.93;74.70
73267;BME280;61495;53.400;7.608;2023-04-06T06:16:20;101748.22;;;3.11;74.02
73267;BME280;61495;53.400;7.608;2023-04-06T06:18:45;101743.50;;;3.24;73.88
73267;BME280;61495;53.400;7.608;2023-04-06T06:21:11;101742.56;;;3.44;73.56
73267;BME280;61495;53.400;7.608;2023-04-06T06:23:37;101747.44;;;3.58;72.99
73267;BME280;61495;53.400;7.608;2023-04-06T06:26:03;101751.63;;;3.70;72.45
73267;BME280;61495;53.400;7.608;2023-04-06T06:28:28;101750.38;;;3.84;72.02
73267;BME280;61495;53.400;7.608;2023-04-06T06:30:53;101742.53;;;4.02;71.41
73267;BME280;61495;53.400;7.608;2023-04-06T06:33:19;101747.38;;;4.16;71.09
73267;BME280;61495;53.400;7.608;2023-04-06T06:35:44;101749.41;;;4.41;70.28
73267;BME280;61495;53.400;7.608;2023-04-06T06:38:10;101744.22;;;4.49;69.57
73267;BME280;61495;53.400;7.608;2023-04-06T06:40:35;101743.31;;;4.68;69.63
73267;BME280;61495;53.400;7.608;2023-04-06T06:43:02;101738.94;;;4.76;69.06
73267;BME280;61495;53.400;7.608;2023-04-06T06:45:27;101737.22;;;4.85;68.12
73267;BME280;61495;53.400;7.608;2023-04-06T06:47:54;101735.50;;;4.93;68.20
73267;BME280;61495;53.400;7.608;2023-04-06T06:50:19;101747.00;;;5.12;68.30
73267;BME280;61495;53.400;7.608;2023-04-06T06:52:45;101737.81;;;5.24;67.61
73267;BME280;61495;53.400;7.608;2023-04-06T06:55:10;101740.25;;;5.35;67.13
73267;BME280;61495;53.400;7.608;2023-04-06T06:57:36;101746.72;;;5.50;66.30
73267;BME280;61495;53.400;7.608;2023-04-06T07:00:02;101733.59;;;5.66;66.59
73267;BME280;61495;53.400;7.608;2023-04-06T07:02:30;101740.13;;;5.89;66.61
73267;BME280;61495;53.400;7.608;2023-04-06T07:04:55;101741.03;;;5.98;65.39
73267;BME280;61495;53.400;7.608;2023-04-06T07:07:21;101729.50;;;6.15;65.65
73267;BME280;61495;53.400;7.608;2023-04-06T07:09:46;101729.94;;;6.28;64.32
73267;BME280;61495;53.400;7.608;2023-04-06T07:12:11;101733.69;;;6.43;64.11
73267;BME280;61495;53.400;7.608;2023-04-06T07:14:37;101726.47;;;6.61;64.08
73267;BME280;61495;53.400;7.608;2023-04-06T07:17:02;101723.00;;;6.69;62.79
73267;BME280;61495;53.400;7.608;2023-04-06T07:19:27;101728.53;;;6.76;61.76
73267;BME280;61495;53.400;7.608;2023-04-06T07:21:53;101735.78;;;6.99;63.08
73267;BME280;61495;53.400;7.608;2023-04-06T07:24:19;101729.16;;;7.11;61.98
73267;BME280;61495;53.400;7.608;2023-04-06T07:26:44;101727.19;;;7.30;62.08
73267;BME280;61495;53.400;7.608;2023-04-06T07:29:10;101731.56;;;7.55;62.03
73267;BME280;61495;53.400;7.608;2023-04-06T07:31:35;101728.22;;;7.53;60.05
73267;BME280;61495;53.400;7.608;2023-04-06T07:34:01;101723.59;;;7.63;60.44
73267;BME280;61495;53.400;7.608;2023-04-06T07:36:26;101724.91;;;7.67;60.18
73267;BME280;61495;53.400;7.608;2023-04-06T07:38:52;101722.25;;;7.83;60.18
73267;BME280;61495;53.400;7.608;2023-04-06T07:41:26;101723.25;;;7.98;58.79
73267;BME280;61495;53.400;7.608;2023-04-06T07:43:51;101714.06;;;8.01;59.66
73267;BME280;61495;53.400;7.608;2023-04-06T07:46:17;101718.22;;;8.27;60.16
73267;BME280;61495;53.400;7.608;2023-04-06T07:48:42;101712.88;;;8.27;58.87
73267;BME280;61495;53.400;7.608;2023-04-06T07:51:07;101714.34;;;8.38;58.19
73267;BME280;61495;53.400;7.608;2023-04-06T07:53:33;101715.84;;;8.49;56.92
73267;BME280;61495;53.400;7.608;2023-04-06T07:55:59;101706.13;;;8.56;57.34
73267;BME280;61495;53.400;7.608;2023-04-06T07:58:24;101708.44;;;8.59;55.93
73267;BME280;61495;53.400;7.608;2023-04-06T08:00:50;101709.19;;;8.83;56.52
73267;BME280;61495;53.400;7.608;2023-04-06T08:03:15;101710.56;;;9.10;57.97
73267;BME280;61495;53.400;7.608;2023-04-06T08:05:42;101710.81;;;9.23;56.50
73267;BME280;61495;53.400;7.608;2023-04-06T08:08:07;101707.59;;;9.28;55.56
73267;BME280;61495;53.400;7.608;2023-04-06T08:10:33;101720.81;;;9.29;55.10
73267;BME280;61495;53.400;7.608;2023-04-06T08:12:59;101710.41;;;9.34;54.58
73267;BME280;61495;53.400;7.608;2023-04-06T08:15:25;101708.91;;;9.55;54.37
73267;BME280;61495;53.400;7.608;2023-04-06T08:17:50;101715.41;;;9.60;53.90
73267;BME280;61495;53.400;7.608;2023-04-06T08:20:15;101718.56;;;9.64;52.87
73267;BME280;61495;53.400;7.608;2023-04-06T08:22:41;101712.81;;;9.89;53.02
73267;BME280;61495;53.400;7.608;2023-04-06T08:25:06;101711.09;;;10.11;53.02
73267;BME280;61495;53.400;7.608;2023-04-06T08:27:31;101706.94;;;9.94;51.21
73267;BME280;61495;53.400;7.608;2023-04-06T08:29:57;101699.56;;;10.11;51.73
73267;BME280;61495;53.400;7.608;2023-04-06T08:32:22;101699.53;;;10.33;51.87
73267;BME280;61495;53.400;7.608;2023-04-06T08:34:47;101701.66;;;10.38;49.83
73267;BME280;61495;53.400;7.608;2023-04-06T08:37:13;101704.06;;;10.62;52.81
73267;BME280;61495;53.400;7.608;2023-04-06T08:39:38;101700.72;;;10.75;51.66
73267;BME280;61495;53.400;7.608;2023-04-06T08:42:04;101701.44;;;10.98;51.12
73267;BME280;61495;53.400;7.608;2023-04-06T08:44:31;101686.72;;;10.94;50.13
73267;BME280;61495;53.400;7.608;2023-04-06T08:46:57;101693.13;;;11.14;49.07
73267;BME280;61495;53.400;7.608;2023-04-06T08:49:24;101693.34;;;11.12;48.82
73267;BME280;61495;53.400;7.608;2023-04-06T08:51:49;101691.56;;;11.41;49.46
73267;BME280;61495;53.400;7.608;2023-04-06T08:54:16;101691.88;;;11.52;49.49
73267;BME280;61495;53.400;7.608;2023-04-06T08:56:42;101693.56;;;11.53;48.24
73267;BME280;61495;53.400;7.608;2023-04-06T08:59:09;101694.16;;;11.70;48.57
73267;BME280;61495;53.400;7.608;2023-04-06T09:01:39;101691.41;;;11.85;48.42
73267;BME280;61495;53.400;7.608;2023-04-06T09:04:07;101691.28;;;11.72;47.50
73267;BME280;61495;53.400;7.608;2023-04-06T09:06:35;101685.28;;;11.97;47.44
73267;BME280;61495;53.400;7.608;2023-04-06T09:09:02;101696.19;;;12.17;47.28
73267;BME280;61495;53.400;7.608;2023-04-06T09:11:27;101691.50;;;11.98;45.50
73267;BME280;61495;53.400;7.608;2023-04-06T09:13:54;101691.59;;;12.11;44.50
73267;BME280;61495;53.400;7.608;2023-04-06T09:16:21;101687.75;;;12.20;46.17
73267;BME280;61495;53.400;7.608;2023-04-06T09:18:47;101683.88;;;12.29;44.83
73267;BME280;61495;53.400;7.608;2023-04-06T09:21:13;101688.72;;;12.12;44.40
73267;BME280;61495;53.400;7.608;2023-04-06T09:23:41;101691.28;;;12.27;43.60
73267;BME280;61495;53.400;7.608;2023-04-06T09:28:55;101689.53;;;12.47;44.06
73267;BME280;61495;53.400;7.608;2023-04-06T09:31:23;101681.63;;;12.80;43.83
73267;BME280;61495;53.400;7.608;2023-04-06T09:33:49;101683.94;;;12.76;43.26
73267;BME280;61495;53.400;7.608;2023-04-06T09:36:14;101680.84;;;12.79;43.80
73267;BME280;61495;53.400;7.608;2023-04-06T09:38:57;101667.34;;;12.73;43.57
73267;BME280;61495;53.400;7.608;2023-04-06T09:41:27;101671.31;;;12.83;43.38
73267;BME280;61495;53.400;7.608;2023-04-06T09:44:07;101667.94;;;13.16;44.54
73267;BME280;61495;53.400;7.608;2023-04-06T09:46:35;101665.78;;;12.92;42.65
73267;BME280;61495;53.400;7.608;2023-04-06T09:49:03;101667.75;;;13.24;43.84
73267;BME280;61495;53.400;7.608;2023-04-06T09:51:40;101666.91;;;13.17;43.83
73267;BME280;61495;53.400;7.608;2023-04-06T09:54:06;101653.69;;;13.15;42.38
73267;BME280;61495;53.400;7.608;2023-04-06T09:56:50;101652.34;;;13.05;42.37
73267;BME280;61495;53.400;7.608;2023-04-06T09:59:37;101651.22;;;13.27;43.52
73267;BME280;61495;53.400;7.608;2023-04-06T10:02:05;101654.50;;;13.22;42.31
73267;BME280;61495;53.400;7.608;2023-04-06T10:04:49;101649.50;;;13.13;41.56
73267;BME280;61495;53.400;7.608;2023-04-06T10:07:16;101657.41;;;13.21;42.72
73267;BME280;61495;53.400;7.608;2023-04-06T10:09:45;101658.88;;;13.30;42.68
73267;BME280;61495;53.400;7.608;2023-04-06T10:12:12;101655.13;;;13.18;40.24
73267;BME280;61495;53.400;7.608;2023-04-06T10:14:38;101647.38;;;13.02;40.96
73267;BME280;61495;53.400;7.608;2023-04-06T10:17:04;101646.00;;;13.12;41.94
73267;BME280;61495;53.400;7.608;2023-04-06T10:19:44;101653.06;;;13.20;41.99
73267;BME280;61495;53.400;7.608;2023-04-06T10:22:18;101645.00;;;13.46;40.86
73267;BME280;61495;53.400;7.608;2023-04-06T10:24:43;101639.22;;;13.36;43.07
73267;BME280;61495;53.400;7.608;2023-04-06T10:27:09;101644.59;;;13.29;40.11
73267;BME280;61495;53.400;7.608;2023-04-06T10:29:46;101642.53;;;13.71;41.53
73267;BME280;61495;53.400;7.608;2023-04-06T10:32:14;101650.41;;;13.85;41.71
73267;BME280;61495;53.400;7.608;2023-04-06T10:34:39;101641.50;;;13.85;41.69
73267;BME280;61495;53.400;7.608;2023-04-06T10:37:14;101636.72;;;13.41;39.69
73267;BME280;61495;53.400;7.608;2023-04-06T10:39:48;101636.09;;;13.26;40.33
73267;BME280;61495;53.400;7.608;2023-04-06T10:42:23;101634.66;;;13.50;40.42
73267;BME280;61495;53.400;7.608;2023-04-06T10:44:49;101643.38;;;13.58;40.97
73267;BME280;61495;53.400;7.608;2023-04-06T10:47:16;101635.28;;;13.71;40.52
73267;BME280;61495;53.400;7.608;2023-04-06T10:49:45;101630.94;;;13.64;40.03
73267;BME280;61495;53.400;7.608;2023-04-06T10:52:10;101637.53;;;13.87;41.45
73267;BME280;61495;53.400;7.608;2023-04-06T10:54:41;101627.59;;;14.01;41.92
73267;BME280;61495;53.400;7.608;2023-04-06T10:57:07;101625.94;;;14.07;40.79
73267;BME280;61495;53.400;7.608;2023-04-06T10:59:32;101618.69;;;14.01;41.35
73267;BME280;61495;53.400;7.608;2023-04-06T11:01:58;101629.69;;;13.79;39.50
73267;BME280;61495;53.400;7.608;2023-04-06T11:04:24;101609.34;;;13.97;41.63
73267;BME280;61495;53.400;7.608;2023-04-06T11:06:50;101620.91;;;14.17;40.07
73267;BME280;61495;53.400;7.608;2023-04-06T11:09:29;101615.34;;;13.99;40.99
73267;BME280;61495;53.400;7.608;2023-04-06T11:11:56;101614.13;;;13.75;39.60
73267;BME280;61495;53.400;7.608;2023-04-06T11:14:22;101607.69;;;14.02;41.86
73267;BME280;61495;53.400;7.608;2023-04-06T11:16:48;101607.31;;;13.72;40.56
73267;BME280;61495;53.400;7.608;2023-04-06T11:19:15;101606.47;;;13.78;40.91
73267;BME280;61495;53.400;7.608;2023-04-06T11:21:42;101610.59;;;13.87;39.73
73267;BME280;61495;53.400;7.608;2023-04-06T11:24:10;101616.25;;;13.53;38.87
73267;BME280;61495;53.400;7.608;2023-04-06T11:29:10;101611.03;;;13.98;41.98
73267;BME280;61495;53.400;7.608;2023-04-06T11:32:02;101596.31;;;13.87;40.96
73267;BME280;61495;53.400;7.608;2023-04-06T11:34:29;101609.81;;;13.67;40.75
73267;BME280;61495;53.400;7.608;2023-04-06T11:37:00;101601.91;;;13.85;39.85
73267;BME280;61495;53.400;7.608;2023-04-06T11:39:27;101595.88;;;13.90;41.01
73267;BME280;61495;53.400;7.608;2023-04-06T11:41:57;101601.53;;;13.62;38.98
73267;BME280;61495;53.400;7.608;2023-04-06T11:44:44;101608.16;;;13.53;40.34
73267;BME280;61495;53.400;7.608;2023-04-06T11:47:14;101594.91;;;13.65;39.16
73267;BME280;61495;53.400;7.608;2023-04-06T11:49:42;101598.16;;;13.93;41.08
73267;BME280;61495;53.400;7.608;2023-04-06T11:52:20;101600.06;;;13.66;39.58
73267;BME280;61495;53.400;7.608;2023-04-06T11:54:47;101589.66;;;13.96;39.65
73267;BME280;61495;53.400;7.608;2023-04-06T11:57:13;101592.75;;;14.13;41.74
73267;BME280;61495;53.400;7.608;2023-04-06T11:59:39;101594.38;;;14.20;41.50
73267;BME280;61495;53.400;7.608;2023-04-06T12:02:05;101589.00;;;14.14;40.14
73267;BME280;61495;53.400;7.608;2023-04-06T12:04:31;101588.53;;;14.43;43.62
73267;BME280;61495;53.400;7.608;2023-04-06T12:06:57;101588.47;;;14.56;43.33
73267;BME280;61495;53.400;7.608;2023-04-06T12:09:22;101579.94;;;14.59;39.82
73267;BME280;61495;53.400;7.608;2023-04-06T12:11:48;101582.50;;;14.85;43.60
73267;BME280;61495;53.400;7.608;2023-04-06T12:14:13;101579.13;;;14.96;43.24
73267;BME280;61495;53.400;7.608;2023-04-06T12:16:39;101576.25;;;14.85;41.60
73267;BME280;61495;53.400;7.608;2023-04-06T12:19:05;101578.50;;;14.94;40.97
73267;BME280;61495;53.400;7.608;2023-04-06T12:21:31;101570.31;;;15.08;42.15
73267;BME280;61495;53.400;7.608;2023-04-06T12:23:57;101575.09;;;14.74;37.87
73267;BME280;61495;53.400;7.608;2023-04-06T12:26:23;101561.78;;;14.79;39.03
73267;BME280;61495;53.400;7.608;2023-04-06T12:28:48;101568.13;;;14.91;41.41
73267;BME280;61495;53.400;7.608;2023-04-06T12:31:15;101570.22;;;15.21;43.34
73267;BME280;61495;53.400;7.608;2023-04-06T12:33:41;101571.44;;;15.25;42.01
73267;BME280;61495;53.400;7.608;2023-04-06T12:36:12;101571.28;;;15.20;40.08
73267;BME280;61495;53.400;7.608;2023-04-06T12:38:38;101572.81;;;15.02;40.63
73267;BME280;61495;53.400;7.608;2023-04-06T12:41:05;101573.78;;;15.15;41.28
73267;BME280;61495;53.400;7.608;2023-04-06T12:43:30;101572.78;;;15.09;39.91
73267;BME280;61495;53.400;7.608;2023-04-06T12:45:56;101561.28;;;14.95;39.03
73267;BME280;61495;53.400;7.608;2023-04-06T12:48:21;101562.69;;;14.98;39.40
73267;BME280;61495;53.400;7.608;2023-04-06T12:51:00;101554.66;;;14.91;39.72
73267;BME280;61495;53.400;7.608;2023-04-06T12:53:27;101554.44;;;14.55;35.99
73267;BME280;61495;53.400;7.608;2023-04-06T12:55:54;101551.63;;;14.30;36.25
73267;BME280;61495;53.400;7.608;2023-04-06T12:58:20;101554.59;;;14.16;35.84
73267;BME280;61495;53.400;7.608;2023-04-06T13:00:47;101550.81;;;14.36;37.26